sensor_id;sensor_type;location;lat;lon;timestamp;temperature;humidity
8888;DHT22;4480;52.370;9.748;2023-03-19T00:02:19;11.00;99.90
8888;DHT22;4480;52.370;9.748;2023-03-19T00:04:46;11.00;99.90
8888;DHT22;4480;52.370;9.748;2023-03-19T00:07:15;11.00;99.90
8888;DHT22;4480;52.370;9.748;2023-03-19T00:09:41;11.00;99.90
8888;DHT22;4480;52.370;9.748;2023-03-19T00:12:09;10.90;99.90
8888;DHT22;4480;52.370;9.748;2023-03-19T00:14:36;10.90;99.90
8888;DHT22;4480;52.370;9.748;2023-03-19T00:17:03;10.90;99.90
8888;DHT22;4480;52.370;9.748;2023-03-19T00:19:29;10.90;99.90
8888;DHT22;4480;52.370;9.748;2023-03-19T00:21:56;10.80;99.90
8888;DHT22;4480;52.370;9.748;2023-03-19T00:24:24;10.80;99.90
8888;DHT22;4480;52.370;9.748;2023-03-19T00:26:51;10.80;99.90
8888;DHT22;4480;52.370;9.748;2023-03-19T00:29:18;10.80;99.90
8888;DHT22;4480;52.370;9.748;2023-03-19T00:31:45;10.70;99.90
8888;DHT22;4480;52.370;9.748;2023-03-19T00:34:12;10.70;99.90
8888;DHT22;4480;52.370;9.748;2023-03-19T00:36:38;10.70;99.90
8888;DHT22;4480;52.370;9.748;2023-03-19T00:39:05;10.70;99.90
8888;DHT22;4480;52.370;9.748;2023-03-19T00:41:34;10.60;99.90
8888;DHT22;4480;52.370;9.748;2023-03-19T00:44:01;10.60;99.90
8888;DHT22;4480;52.370;9.748;2023-03-19T00:46:28;10.50;99.90
8888;DHT22;4480;52.370;9.748;2023-03-19T00:48:55;10.50;99.90
8888;DHT22;4480;52.370;9.748;2023-03-19T00:51:23;10.50;99.90
8888;DHT22;4480;52.370;9.748;2023-03-19T00:53:51;10.40;99.90
8888;DHT22;4480;52.370;9.748;2023-03-19T00:56:18;10.40;99.90
8888;DHT22;4480;52.370;9.748;2023-03-19T00:58:47;10.30;99.90
8888;DHT22;4480;52.370;9.748;2023-03-19T01:01:16;10.20;99.90
8888;DHT22;4480;52.370;9.748;2023-03-19T01:03:43;10.20;99.90
8888;DHT22;4480;52.370;9.748;2023-03-19T01:06:10;10.10;99.90
8888;DHT22;4480;52.370;9.748;2023-03-19T01:08:37;10.00;99.90
8888;DHT22;4480;52.370;9.748;2023-03-19T01:11:06;9.90;99.90
8888;DHT22;4480;52.370;9.748;2023-03-19T01:13:33;9.90;99.90
8888;DHT22;4480;52.370;9.748;2023-03-19T01:16:02;9.80;99.90
8888;DHT22;4480;52.370;9.748;2023-03-19T01:18:29;9.80;99.90
8888;DHT22;4480;52.370;9.748;2023-03-19T01:20:56;9.70;99.90
8888;DHT22;4480;52.370;9.748;2023-03-19T01:23:23;9.70;99.90
8888;DHT22;4480;52.370;9.748;2023-03-19T01:25:50;9.60;99.90
8888;DHT22;4480;52.370;9.748;2023-03-19T01:28:16;9.60;99.90
8888;DHT22;4480;52.370;9.748;2023-03-19T01:30:43;9.50;99.90
8888;DHT22;4480;52.370;9.748;2023-03-19T01:33:11;9.50;99.90
8888;DHT22;4480;52.370;9.748;2023-03-19T01:35:38;9.40;99.90
8888;DHT22;4480;52.370;9.748;2023-03-19T01:38:05;9.40;99.90
8888;DHT22;4480;52.370;9.748;2023-03-19T01:40:32;9.40;99.90
8888;DHT22;4480;52.370;9.748;2023-03-19T01:43:12;9.30;99.90
8888;DHT22;4480;52.370;9.748;2023-03-19T01:45:41;9.30;99.90
8888;DHT22;4480;52.370;9.748;2023-03-19T01:48:18;9.30;99.90
8888;DHT22;4480;52.370;9.748;2023-03-19T01:50:47;9.30;99.90
8888;DHT22;4480;52.370;9.748;2023-03-19T01:53:20;9.20;99.90
8888;DHT22;4480;52.370;9.748;2023-03-19T01:55:49;9.20;99.90
8888;DHT22;4480;52.370;9.748;2023-03-19T01:58:16;9.20;99.90
8888;DHT22;4480;52.370;9.748;2023-03-19T02:00:43;9.20;99.90
8888;DHT22;4480;52.370;9.748;2023-03-19T02:03:12;9.10;99.90
8888;DHT22;4480;52.370;9.748;2023-03-19T02:05:40;9.10;99.90
8888;DHT22;4480;52.370;9.748;2023-03-19T02:08:11;9.10;99.90
8888;DHT22;4480;52.370;9.748;2023-03-19T02:10:40;9.10;99.90
8888;DHT22;4480;52.370;9.748;2023-03-19T02:13:07;9.00;99.90
8888;DHT22;4480;52.370;9.748;2023-03-19T02:15:34;9.00;99.90
8888;DHT22;4480;52.370;9.748;2023-03-19T02:18:01;9.00;99.90
8888;DHT22;4480;52.370;9.748;2023-03-19T02:20:32;8.90;99.90
8888;DHT22;4480;52.370;9.748;2023-03-19T02:23:08;8.90;99.90
8888;DHT22;4480;52.370;9.748;2023-03-19T02:25:40;8.90;99.90
8888;DHT22;4480;52.370;9.748;2023-03-19T02:28:11;8.90;99.90
8888;DHT22;4480;52.370;9.748;2023-03-19T02:30:38;8.90;99.90
8888;DHT22;4480;52.370;9.748;2023-03-19T02:33:05;8.80;99.90
8888;DHT22;4480;52.370;9.748;2023-03-19T02:35:33;8.80;99.90
8888;DHT22;4480;52.370;9.748;2023-03-19T02:38:02;8.80;99.90
8888;DHT22;4480;52.370;9.748;2023-03-19T02:40:34;8.80;99.90
8888;DHT22;4480;52.370;9.748;2023-03-19T02:43:02;8.80;99.90
8888;DHT22;4480;52.370;9.748;2023-03-19T02:45:31;8.80;99.90
8888;DHT22;4480;52.370;9.748;2023-03-19T02:47:58;8.80;99.90
8888;DHT22;4480;52.370;9.748;2023-03-19T02:50:25;8.70;99.90
8888;DHT22;4480;52.370;9.748;2023-03-19T02:52:52;8.70;99.90
8888;DHT22;4480;52.370;9.748;2023-03-19T02:55:19;8.70;99.90
8888;DHT22;4480;52.370;9.748;2023-03-19T02:57:46;8.70;99.90
8888;DHT22;4480;52.370;9.748;2023-03-19T03:02:44;8.70;99.90
8888;DHT22;4480;52.370;9.748;2023-03-19T03:05:11;8.70;99.90
8888;DHT22;4480;52.370;9.748;2023-03-19T03:07:39;8.70;99.90
8888;DHT22;4480;52.370;9.748;2023-03-19T03:10:08;8.70;99.90
8888;DHT22;4480;52.370;9.748;2023-03-19T03:12:35;8.70;99.90
8888;DHT22;4480;52.370;9.748;2023-03-19T03:15:03;8.60;99.90
8888;DHT22;4480;52.370;9.748;2023-03-19T03:17:30;8.60;99.90
8888;DHT22;4480;52.370;9.748;2023-03-19T03:19:58;8.70;99.90
8888;DHT22;4480;52.370;9.748;2023-03-19T03:22:25;8.60;99.90
8888;DHT22;4480;52.370;9.748;2023-03-19T03:24:52;8.60;99.90
8888;DHT22;4480;52.370;9.748;2023-03-19T03:27:19;8.60;99.90
8888;DHT22;4480;52.370;9.748;2023-03-19T03:29:45;8.60;99.90
8888;DHT22;4480;52.370;9.748;2023-03-19T03:32:13;8.60;99.90
8888;DHT22;4480;52.370;9.748;2023-03-19T03:34:40;8.50;99.90
8888;DHT22;4480;52.370;9.748;2023-03-19T03:37:08;8.50;99.90
8888;DHT22;4480;52.370;9.748;2023-03-19T03:39:35;8.50;99.90
8888;DHT22;4480;52.370;9.748;2023-03-19T03:42:02;8.50;99.90
8888;DHT22;4480;52.370;9.748;2023-03-19T03:44:29;8.50;99.90
8888;DHT22;4480;52.370;9.748;2023-03-19T03:46:56;8.50;99.90
8888;DHT22;4480;52.370;9.748;2023-03-19T03:49:23;8.50;99.90
8888;DHT22;4480;52.370;9.748;2023-03-19T03:51:50;8.50;99.90
8888;DHT22;4480;52.370;9.748;2023-03-19T03:54:18;8.50;99.90
8888;DHT22;4480;52.370;9.748;2023-03-19T03:56:45;8.50;99.90
8888;DHT22;4480;52.370;9.748;2023-03-19T03:59:14;8.40;99.90
8888;DHT22;4480;52.370;9.748;2023-03-19T04:01:41;8.40;99.90
8888;DHT22;4480;52.370;9.748;2023-03-19T04:04:08;8.40;99.90
8888;DHT22;4480;52.370;9.748;2023-03-19T04:06:35;8.40;99.90
8888;DHT22;4480;52.370;9.748;2023-03-19T04:11:22;8.40;99.90
8888;DHT22;4480;52.370;9.748;2023-03-19T04:13:49;8.40;99.90
8888;DHT22;4480;52.370;9.748;2023-03-19T04:16:16;8.40;99.90
8888;DHT22;4480;52.370;9.748;2023-03-19T04:18:43;8.40;99.90
8888;DHT22;4480;52.370;9.748;2023-03-19T04:21:10;8.40;99.90
8888;DHT22;4480;52.370;9.748;2023-03-19T04:23:36;8.40;99.90
8888;DHT22;4480;52.370;9.748;2023-03-19T04:26:04;8.30;99.90
8888;DHT22;4480;52.370;9.748;2023-03-19T04:28:33;8.40;99.90
8888;DHT22;4480;52.370;9.748;2023-03-19T04:31:01;8.40;99.90
8888;DHT22;4480;52.370;9.748;2023-03-19T04:33:30;8.40;99.90
8888;DHT22;4480;52.370;9.748;2023-03-19T04:35:58;8.40;99.90
8888;DHT22;4480;52.370;9.748;2023-03-19T04:38:25;8.40;99.90
8888;DHT22;4480;52.370;9.748;2023-03-19T04:40:52;8.40;99.90
8888;DHT22;4480;52.370;9.748;2023-03-19T04:43:19;8.40;99.90
8888;DHT22;4480;52.370;9.748;2023-03-19T04:45:48;8.50;99.90
8888;DHT22;4480;52.370;9.748;2023-03-19T04:48:15;8.50;99.90
8888;DHT22;4480;52.370;9.748;2023-03-19T04:50:42;8.50;99.90
8888;DHT22;4480;52.370;9.748;2023-03-19T04:53:10;8.50;99.90
8888;DHT22;4480;52.370;9.748;2023-03-19T04:55:37;8.60;99.90
8888;DHT22;4480;52.370;9.748;2023-03-19T04:58:04;8.60;99.90
8888;DHT22;4480;52.370;9.748;2023-03-19T05:00:31;8.60;99.90
8888;DHT22;4480;52.370;9.748;2023-03-19T05:02:59;8.70;99.90
8888;DHT22;4480;52.370;9.748;2023-03-19T05:05:26;8.70;99.90
8888;DHT22;4480;52.370;9.748;2023-03-19T05:07:52;8.70;99.90
8888;DHT22;4480;52.370;9.748;2023-03-19T05:10:19;8.70;99.90
8888;DHT22;4480;52.370;9.748;2023-03-19T05:12:46;8.70;99.90
8888;DHT22;4480;52.370;9.748;2023-03-19T05:15:13;8.70;99.90
8888;DHT22;4480;52.370;9.748;2023-03-19T05:17:40;8.80;99.90
8888;DHT22;4480;52.370;9.748;2023-03-19T05:20:13;8.80;99.90
8888;DHT22;4480;52.370;9.748;2023-03-19T05:22:40;8.90;99.90
8888;DHT22;4480;52.370;9.748;2023-03-19T05:25:07;8.90;99.90
8888;DHT22;4480;52.370;9.748;2023-03-19T05:27:34;8.90;99.90
8888;DHT22;4480;52.370;9.748;2023-03-19T05:30:01;8.90;99.90
8888;DHT22;4480;52.370;9.748;2023-03-19T05:32:28;9.00;99.90
8888;DHT22;4480;52.370;9.748;2023-03-19T05:34:54;9.00;99.90
8888;DHT22;4480;52.370;9.748;2023-03-19T05:37:23;9.00;99.90
8888;DHT22;4480;52.370;9.748;2023-03-19T05:39:49;9.10;99.90
8888;DHT22;4480;52.370;9.748;2023-03-19T05:42:16;9.20;99.90
8888;DHT22;4480;52.370;9.748;2023-03-19T05:44:43;9.20;99.90
8888;DHT22;4480;52.370;9.748;2023-03-19T05:47:10;9.30;99.90
8888;DHT22;4480;52.370;9.748;2023-03-19T05:49:37;9.30;99.90
8888;DHT22;4480;52.370;9.748;2023-03-19T05:52:04;9.40;99.90
8888;DHT22;4480;52.370;9.748;2023-03-19T05:54:33;9.40;99.90
8888;DHT22;4480;52.370;9.748;2023-03-19T05:57:00;9.50;99.90
8888;DHT22;4480;52.370;9.748;2023-03-19T05:59:27;9.60;99.90
8888;DHT22;4480;52.370;9.748;2023-03-19T06:01:54;9.60;99.90
8888;DHT22;4480;52.370;9.748;2023-03-19T06:04:21;9.70;99.90
8888;DHT22;4480;52.370;9.748;2023-03-19T06:06:48;9.80;99.90
8888;DHT22;4480;52.370;9.748;2023-03-19T06:09:15;9.80;99.90
8888;DHT22;4480;52.370;9.748;2023-03-19T06:11:43;9.90;99.90
8888;DHT22;4480;52.370;9.748;2023-03-19T06:14:09;10.00;99.90
8888;DHT22;4480;52.370;9.748;2023-03-19T06:16:36;10.00;99.90
8888;DHT22;4480;52.370;9.748;2023-03-19T06:19:03;10.10;99.90
8888;DHT22;4480;52.370;9.748;2023-03-19T06:21:29;10.10;99.90
8888;DHT22;4480;52.370;9.748;2023-03-19T06:23:56;10.20;99.90
8888;DHT22;4480;52.370;9.748;2023-03-19T06:26:24;10.20;99.90
8888;DHT22;4480;52.370;9.748;2023-03-19T06:28:52;10.30;99.90
8888;DHT22;4480;52.370;9.748;2023-03-19T06:31:19;10.30;99.90
8888;DHT22;4480;52.370;9.748;2023-03-19T06:33:47;10.40;99.90
8888;DHT22;4480;52.370;9.748;2023-03-19T06:36:14;10.40;99.90
8888;DHT22;4480;52.370;9.748;2023-03-19T06:38:42;10.40;99.90
8888;DHT22;4480;52.370;9.748;2023-03-19T06:41:08;10.50;99.90
8888;DHT22;4480;52.370;9.748;2023-03-19T06:43:35;10.50;99.90
8888;DHT22;4480;52.370;9.748;2023-03-19T06:46:04;10.60;99.90
8888;DHT22;4480;52.370;9.748;2023-03-19T06:48:31;10.60;99.90
8888;DHT22;4480;52.370;9.748;2023-03-19T06:50:58;10.70;99.90
8888;DHT22;4480;52.370;9.748;2023-03-19T06:53:25;10.80;99.90
8888;DHT22;4480;52.370;9.748;2023-03-19T06:55:52;10.90;99.90
8888;DHT22;4480;52.370;9.748;2023-03-19T06:58:18;11.00;99.90
8888;DHT22;4480;52.370;9.748;2023-03-19T07:00:46;11.10;99.90
8888;DHT22;4480;52.370;9.748;2023-03-19T07:03:14;11.20;99.90
8888;DHT22;4480;52.370;9.748;2023-03-19T07:05:40;11.30;99.90
8888;DHT22;4480;52.370;9.748;2023-03-19T07:08:07;11.30;99.90
8888;DHT22;4480;52.370;9.748;2023-03-19T07:10:36;11.40;99.90
8888;DHT22;4480;52.370;9.748;2023-03-19T07:13:03;11.40;99.90
8888;DHT22;4480;52.370;9.748;2023-03-19T07:15:30;11.40;99.90
8888;DHT22;4480;52.370;9.748;2023-03-19T07:17:57;11.50;99.90
8888;DHT22;4480;52.370;9.748;2023-03-19T07:20:25;11.50;99.90
8888;DHT22;4480;52.370;9.748;2023-03-19T07:22:52;11.50;99.90
8888;DHT22;4480;52.370;9.748;2023-03-19T07:25:19;11.50;99.90
8888;DHT22;4480;52.370;9.748;2023-03-19T07:27:46;11.60;99.90
8888;DHT22;4480;52.370;9.748;2023-03-19T07:30:13;11.60;99.90
8888;DHT22;4480;52.370;9.748;2023-03-19T07:32:40;11.70;99.90
8888;DHT22;4480;52.370;9.748;2023-03-19T07:35:08;11.70;99.90
8888;DHT22;4480;52.370;9.748;2023-03-19T07:37:36;11.70;99.90
8888;DHT22;4480;52.370;9.748;2023-03-19T07:40:03;11.80;99.90
8888;DHT22;4480;52.370;9.748;2023-03-19T07:42:30;11.80;99.90
8888;DHT22;4480;52.370;9.748;2023-03-19T07:44:57;11.80;99.90
8888;DHT22;4480;52.370;9.748;2023-03-19T07:47:24;11.80;99.90
8888;DHT22;4480;52.370;9.748;2023-03-19T07:49:50;11.90;99.90
8888;DHT22;4480;52.370;9.748;2023-03-19T07:52:17;11.90;99.90
8888;DHT22;4480;52.370;9.748;2023-03-19T07:54:45;12.00;99.90
8888;DHT22;4480;52.370;9.748;2023-03-19T07:57:12;12.00;99.90
8888;DHT22;4480;52.370;9.748;2023-03-19T07:59:41;12.10;99.90
8888;DHT22;4480;52.370;9.748;2023-03-19T08:02:09;12.10;99.90
8888;DHT22;4480;52.370;9.748;2023-03-19T08:04:36;12.20;99.90
8888;DHT22;4480;52.370;9.748;2023-03-19T08:07:03;12.20;99.90
8888;DHT22;4480;52.370;9.748;2023-03-19T08:09:29;12.30;99.90
8888;DHT22;4480;52.370;9.748;2023-03-19T08:11:58;12.40;99.90
8888;DHT22;4480;52.370;9.748;2023-03-19T08:14:24;12.50;99.90
8888;DHT22;4480;52.370;9.748;2023-03-19T08:16:51;12.60;99.90
8888;DHT22;4480;52.370;9.748;2023-03-19T08:19:18;12.80;99.90
8888;DHT22;4480;52.370;9.748;2023-03-19T08:21:45;12.90;99.90
8888;DHT22;4480;52.370;9.748;2023-03-19T08:24:11;13.00;99.90
8888;DHT22;4480;52.370;9.748;2023-03-19T08:26:38;13.20;99.90
8888;DHT22;4480;52.370;9.748;2023-03-19T08:29:06;13.20;99.90
8888;DHT22;4480;52.370;9.748;2023-03-19T08:31:33;13.30;99.90
8888;DHT22;4480;52.370;9.748;2023-03-19T08:34:00;13.40;99.90
8888;DHT22;4480;52.370;9.748;2023-03-19T08:36:28;13.50;99.90
8888;DHT22;4480;52.370;9.748;2023-03-19T08:38:55;13.60;99.90
8888;DHT22;4480;52.370;9.748;2023-03-19T08:41:23;13.60;99.90
8888;DHT22;4480;52.370;9.748;2023-03-19T08:43:50;13.70;99.90
8888;DHT22;4480;52.370;9.748;2023-03-19T08:46:18;13.80;99.90
8888;DHT22;4480;52.370;9.748;2023-03-19T08:48:45;13.80;99.90
8888;DHT22;4480;52.370;9.748;2023-03-19T08:51:12;13.80;99.90
8888;DHT22;4480;52.370;9.748;2023-03-19T08:53:39;13.90;99.90
8888;DHT22;4480;52.370;9.748;2023-03-19T08:56:06;13.80;99.90
8888;DHT22;4480;52.370;9.748;2023-03-19T08:58:33;13.90;99.90
8888;DHT22;4480;52.370;9.748;2023-03-19T09:01:01;13.90;99.90
8888;DHT22;4480;52.370;9.748;2023-03-19T09:03:30;13.90;99.90
8888;DHT22;4480;52.370;9.748;2023-03-19T09:05:58;13.90;99.90
8888;DHT22;4480;52.370;9.748;2023-03-19T09:08:25;14.00;99.90
8888;DHT22;4480;52.370;9.748;2023-03-19T09:10:52;14.10;99.90
8888;DHT22;4480;52.370;9.748;2023-03-19T09:13:19;14.20;99.90
8888;DHT22;4480;52.370;9.748;2023-03-19T09:15:46;14.30;99.90
8888;DHT22;4480;52.370;9.748;2023-03-19T09:18:13;14.30;99.90
8888;DHT22;4480;52.370;9.748;2023-03-19T09:20:42;14.40;99.90
8888;DHT22;4480;52.370;9.748;2023-03-19T09:23:09;14.50;99.90
8888;DHT22;4480;52.370;9.748;2023-03-19T09:25:36;14.60;99.90
8888;DHT22;4480;52.370;9.748;2023-03-19T09:28:02;14.70;99.90
8888;DHT22;4480;52.370;9.748;2023-03-19T09:30:29;14.80;99.90
8888;DHT22;4480;52.370;9.748;2023-03-19T09:32:56;15.00;99.90
8888;DHT22;4480;52.370;9.748;2023-03-19T09:35:23;15.30;99.90
8888;DHT22;4480;52.370;9.748;2023-03-19T09:37:56;15.60;99.90
8888;DHT22;4480;52.370;9.748;2023-03-19T09:40:26;16.00;99.90
8888;DHT22;4480;52.370;9.748;2023-03-19T09:42:59;16.20;99.90
8888;DHT22;4480;52.370;9.748;2023-03-19T09:45:31;16.50;99.40
8888;DHT22;4480;52.370;9.748;2023-03-19T09:48:00;16.70;98.20
8888;DHT22;4480;52.370;9.748;2023-03-19T09:50:31;16.80;97.40
8888;DHT22;4480;52.370;9.748;2023-03-19T09:53:07;16.90;96.40
8888;DHT22;4480;52.370;9.748;2023-03-19T09:55:41;16.90;95.40
8888;DHT22;4480;52.370;9.748;2023-03-19T09:58:12;16.90;94.50
8888;DHT22;4480;52.370;9.748;2023-03-19T10:00:42;16.80;94.30
8888;DHT22;4480;52.370;9.748;2023-03-19T10:03:27;17.00;93.90
8888;DHT22;4480;52.370;9.748;2023-03-19T10:06:04;17.20;92.50
8888;DHT22;4480;52.370;9.748;2023-03-19T10:08:58;17.40;92.00
8888;DHT22;4480;52.370;9.748;2023-03-19T10:11:46;17.60;90.90
8888;DHT22;4480;52.370;9.748;2023-03-19T10:14:35;17.70;89.50
8888;DHT22;4480;52.370;9.748;2023-03-19T10:17:11;17.60;88.60
8888;DHT22;4480;52.370;9.748;2023-03-19T10:19:43;17.40;88.20
8888;DHT22;4480;52.370;9.748;2023-03-19T10:22:12;17.10;89.30
8888;DHT22;4480;52.370;9.748;2023-03-19T10:24:44;17.00;89.40
8888;DHT22;4480;52.370;9.748;2023-03-19T10:27:13;17.10;89.80
8888;DHT22;4480;52.370;9.748;2023-03-19T10:29:40;17.20;89.40
8888;DHT22;4480;52.370;9.748;2023-03-19T10:32:16;17.30;88.20
8888;DHT22;4480;52.370;9.748;2023-03-19T10:34:44;17.50;86.60
8888;DHT22;4480;52.370;9.748;2023-03-19T10:37:14;17.60;84.80
8888;DHT22;4480;52.370;9.748;2023-03-19T10:39:44;17.60;83.80
8888;DHT22;4480;52.370;9.748;2023-03-19T10:42:37;17.60;83.80
8888;DHT22;4480;52.370;9.748;2023-03-19T10:45:17;17.50;83.30
8888;DHT22;4480;52.370;9.748;2023-03-19T10:47:45;17.50;83.10
8888;DHT22;4480;52.370;9.748;2023-03-19T10:50:15;17.60;82.20
8888;DHT22;4480;52.370;9.748;2023-03-19T10:52:43;17.70;80.00
8888;DHT22;4480;52.370;9.748;2023-03-19T10:55:15;17.70;78.40
8888;DHT22;4480;52.370;9.748;2023-03-19T10:57:43;17.80;76.90
8888;DHT22;4480;52.370;9.748;2023-03-19T11:00:16;17.80;75.20
8888;DHT22;4480;52.370;9.748;2023-03-19T11:02:48;17.80;73.90
8888;DHT22;4480;52.370;9.748;2023-03-19T11:05:24;17.90;73.60
8888;DHT22;4480;52.370;9.748;2023-03-19T11:07:55;18.00;72.60
8888;DHT22;4480;52.370;9.748;2023-03-19T11:10:26;18.20;71.60
8888;DHT22;4480;52.370;9.748;2023-03-19T11:12:55;18.30;70.60
8888;DHT22;4480;52.370;9.748;2023-03-19T11:15:27;18.40;69.70
8888;DHT22;4480;52.370;9.748;2023-03-19T11:17:58;18.30;68.70
8888;DHT22;4480;52.370;9.748;2023-03-19T11:20:30;18.20;68.40
8888;DHT22;4480;52.370;9.748;2023-03-19T11:22:59;18.10;68.10
8888;DHT22;4480;52.370;9.748;2023-03-19T11:25:32;18.00;67.70
8888;DHT22;4480;52.370;9.748;2023-03-19T11:28:01;17.90;67.60
8888;DHT22;4480;52.370;9.748;2023-03-19T11:30:36;17.90;67.70
8888;DHT22;4480;52.370;9.748;2023-03-19T11:36:02;18.20;66.40
8888;DHT22;4480;52.370;9.748;2023-03-19T11:38:38;18.30;65.70
8888;DHT22;4480;52.370;9.748;2023-03-19T11:41:13;18.40;65.30
8888;DHT22;4480;52.370;9.748;2023-03-19T11:43:52;18.50;64.80
8888;DHT22;4480;52.370;9.748;2023-03-19T11:46:35;18.40;64.10
8888;DHT22;4480;52.370;9.748;2023-03-19T11:49:22;18.30;64.00
8888;DHT22;4480;52.370;9.748;2023-03-19T11:51:57;18.30;63.70
8888;DHT22;4480;52.370;9.748;2023-03-19T11:54:31;18.30;64.40
8888;DHT22;4480;52.370;9.748;2023-03-19T11:57:03;18.50;63.30
8888;DHT22;4480;52.370;9.748;2023-03-19T11:59:54;18.60;62.80
8888;DHT22;4480;52.370;9.748;2023-03-19T12:02:36;18.80;62.60
8888;DHT22;4480;52.370;9.748;2023-03-19T12:05:19;19.00;62.10
8888;DHT22;4480;52.370;9.748;2023-03-19T12:07:55;19.10;61.20
8888;DHT22;4480;52.370;9.748;2023-03-19T12:10:33;19.10;60.50
8888;DHT22;4480;52.370;9.748;2023-03-19T12:13:15;19.20;60.40
8888;DHT22;4480;52.370;9.748;2023-03-19T12:15:52;19.30;60.00
8888;DHT22;4480;52.370;9.748;2023-03-19T12:18:31;19.30;59.80
8888;DHT22;4480;52.370;9.748;2023-03-19T12:21:07;19.30;59.80
8888;DHT22;4480;52.370;9.748;2023-03-19T12:23:45;19.30;59.80
8888;DHT22;4480;52.370;9.748;2023-03-19T12:26:23;19.30;59.80
8888;DHT22;4480;52.370;9.748;2023-03-19T12:29:02;19.30;59.40
8888;DHT22;4480;52.370;9.748;2023-03-19T12:31:41;19.30;59.20
8888;DHT22;4480;52.370;9.748;2023-03-19T12:34:20;19.10;58.60
8888;DHT22;4480;52.370;9.748;2023-03-19T12:36:51;19.00;58.60
8888;DHT22;4480;52.370;9.748;2023-03-19T12:39:23;19.10;58.80
8888;DHT22;4480;52.370;9.748;2023-03-19T12:41:52;19.10;58.20
8888;DHT22;4480;52.370;9.748;2023-03-19T12:44:25;19.10;58.20
8888;DHT22;4480;52.370;9.748;2023-03-19T12:46:56;19.00;58.20
8888;DHT22;4480;52.370;9.748;2023-03-19T12:49:28;19.00;58.40
8888;DHT22;4480;52.370;9.748;2023-03-19T12:51:59;19.10;58.40
8888;DHT22;4480;52.370;9.748;2023-03-19T12:54:32;19.20;58.40
8888;DHT22;4480;52.370;9.748;2023-03-19T12:57:05;19.10;58.30
8888;DHT22;4480;52.370;9.748;2023-03-19T12:59:38;19.00;58.50
8888;DHT22;4480;52.370;9.748;2023-03-19T13:02:15;19.00;58.60
8888;DHT22;4480;52.370;9.748;2023-03-19T13:04:52;19.00;58.60
8888;DHT22;4480;52.370;9.748;2023-03-19T13:07:23;19.00;58.70
8888;DHT22;4480;52.370;9.748;2023-03-19T13:09:57;18.80;58.60
8888;DHT22;4480;52.370;9.748;2023-03-19T13:12:28;18.60;58.80
8888;DHT22;4480;52.370;9.748;2023-03-19T13:15:02;18.30;58.90
8888;DHT22;4480;52.370;9.748;2023-03-19T13:17:36;18.00;58.80
8888;DHT22;4480;52.370;9.748;2023-03-19T13:20:15;17.80;59.20
8888;DHT22;4480;52.370;9.748;2023-03-19T13:22:49;17.50;59.60
8888;DHT22;4480;52.370;9.748;2023-03-19T13:25:21;17.30;60.10
8888;DHT22;4480;52.370;9.748;2023-03-19T13:27:51;17.10;60.70
8888;DHT22;4480;52.370;9.748;2023-03-19T13:30:22;17.00;61.20
8888;DHT22;4480;52.370;9.748;2023-03-19T13:32:52;16.80;62.20
8888;DHT22;4480;52.370;9.748;2023-03-19T13:35:33;16.60;63.50
8888;DHT22;4480;52.370;9.748;2023-03-19T13:38:03;16.50;64.60
8888;DHT22;4480;52.370;9.748;2023-03-19T13:40:39;16.40;66.00
8888;DHT22;4480;52.370;9.748;2023-03-19T13:46:34;16.40;70.80
8888;DHT22;4480;52.370;9.748;2023-03-19T13:49:09;16.40;71.70
8888;DHT22;4480;52.370;9.748;2023-03-19T13:51:49;16.50;71.80
8888;DHT22;4480;52.370;9.748;2023-03-19T13:54:17;16.60;71.40
8888;DHT22;4480;52.370;9.748;2023-03-19T13:57:03;16.70;71.40
8888;DHT22;4480;52.370;9.748;2023-03-19T13:59:32;16.80;71.20
8888;DHT22;4480;52.370;9.748;2023-03-19T14:02:01;16.80;71.20
8888;DHT22;4480;52.370;9.748;2023-03-19T14:04:29;16.70;72.00
8888;DHT22;4480;52.370;9.748;2023-03-19T14:07:07;16.70;72.00
8888;DHT22;4480;52.370;9.748;2023-03-19T14:09:37;16.70;72.30
8888;DHT22;4480;52.370;9.748;2023-03-19T14:12:17;16.80;72.50
8888;DHT22;4480;52.370;9.748;2023-03-19T14:14:47;16.80;72.10
8888;DHT22;4480;52.370;9.748;2023-03-19T14:17:19;16.70;72.50
8888;DHT22;4480;52.370;9.748;2023-03-19T14:19:48;16.60;72.90
8888;DHT22;4480;52.370;9.748;2023-03-19T14:22:20;16.70;73.70
8888;DHT22;4480;52.370;9.748;2023-03-19T14:24:55;16.90;72.70
8888;DHT22;4480;52.370;9.748;2023-03-19T14:27:29;17.00;72.10
8888;DHT22;4480;52.370;9.748;2023-03-19T14:29:58;17.10;71.40
8888;DHT22;4480;52.370;9.748;2023-03-19T14:32:33;17.10;71.30
8888;DHT22;4480;52.370;9.748;2023-03-19T14:35:03;17.00;71.30
8888;DHT22;4480;52.370;9.748;2023-03-19T14:37:37;17.10;71.40
8888;DHT22;4480;52.370;9.748;2023-03-19T14:40:11;17.10;71.10
8888;DHT22;4480;52.370;9.748;2023-03-19T14:42:46;17.10;71.00
8888;DHT22;4480;52.370;9.748;2023-03-19T14:45:40;17.00;70.60
8888;DHT22;4480;52.370;9.748;2023-03-19T14:48:19;16.90;70.20
8888;DHT22;4480;52.370;9.748;2023-03-19T14:53:51;16.80;70.10
8888;DHT22;4480;52.370;9.748;2023-03-19T14:56:21;16.70;70.20
8888;DHT22;4480;52.370;9.748;2023-03-19T14:58:51;16.60;70.40
8888;DHT22;4480;52.370;9.748;2023-03-19T15:01:19;16.50;70.70
8888;DHT22;4480;52.370;9.748;2023-03-19T15:03:53;16.40;71.00
8888;DHT22;4480;52.370;9.748;2023-03-19T15:06:21;16.30;71.40
8888;DHT22;4480;52.370;9.748;2023-03-19T15:08:48;16.20;71.80
8888;DHT22;4480;52.370;9.748;2023-03-19T15:11:35;16.10;72.20
8888;DHT22;4480;52.370;9.748;2023-03-19T15:14:24;16.00;72.70
8888;DHT22;4480;52.370;9.748;2023-03-19T15:17:00;16.00;73.20
8888;DHT22;4480;52.370;9.748;2023-03-19T15:19:34;16.00;73.50
8888;DHT22;4480;52.370;9.748;2023-03-19T15:22:11;16.00;73.80
8888;DHT22;4480;52.370;9.748;2023-03-19T15:24:39;16.00;74.20
8888;DHT22;4480;52.370;9.748;2023-03-19T15:27:20;15.90;74.80
8888;DHT22;4480;52.370;9.748;2023-03-19T15:29:47;15.90;75.40
8888;DHT22;4480;52.370;9.748;2023-03-19T15:32:30;15.90;75.70
8888;DHT22;4480;52.370;9.748;2023-03-19T15:34:59;16.00;75.80
8888;DHT22;4480;52.370;9.748;2023-03-19T15:37:27;16.10;76.00
8888;DHT22;4480;52.370;9.748;2023-03-19T15:39:56;16.10;75.80
8888;DHT22;4480;52.370;9.748;2023-03-19T15:42:26;16.10;75.80
8888;DHT22;4480;52.370;9.748;2023-03-19T15:44:57;16.10;75.80
8888;DHT22;4480;52.370;9.748;2023-03-19T15:47:28;16.20;75.70
8888;DHT22;4480;52.370;9.748;2023-03-19T15:50:00;16.20;75.40
8888;DHT22;4480;52.370;9.748;2023-03-19T15:52:30;16.30;75.20
8888;DHT22;4480;52.370;9.748;2023-03-19T15:54:59;16.30;74.80
8888;DHT22;4480;52.370;9.748;2023-03-19T15:57:27;16.40;74.50
8888;DHT22;4480;52.370;9.748;2023-03-19T15:59:55;16.40;74.30
8888;DHT22;4480;52.370;9.748;2023-03-19T16:02:25;16.30;74.10
8888;DHT22;4480;52.370;9.748;2023-03-19T16:04:52;16.20;74.00
8888;DHT22;4480;52.370;9.748;2023-03-19T16:07:31;16.20;74.20
8888;DHT22;4480;52.370;9.748;2023-03-19T16:10:23;16.10;74.20
8888;DHT22;4480;52.370;9.748;2023-03-19T16:12:56;16.10;74.20
8888;DHT22;4480;52.370;9.748;2023-03-19T16:15:30;16.10;74.10
8888;DHT22;4480;52.370;9.748;2023-03-19T16:18:08;16.10;74.10
8888;DHT22;4480;52.370;9.748;2023-03-19T16:20:59;16.00;73.90
8888;DHT22;4480;52.370;9.748;2023-03-19T16:23:32;16.00;74.10
8888;DHT22;4480;52.370;9.748;2023-03-19T16:26:04;16.00;74.40
8888;DHT22;4480;52.370;9.748;2023-03-19T16:28:32;15.90;74.70
8888;DHT22;4480;52.370;9.748;2023-03-19T16:30:59;15.90;75.00
8888;DHT22;4480;52.370;9.748;2023-03-19T16:33:26;15.80;75.20
8888;DHT22;4480;52.370;9.748;2023-03-19T16:35:52;15.80;75.50
8888;DHT22;4480;52.370;9.748;2023-03-19T16:38:22;15.70;75.80
8888;DHT22;4480;52.370;9.748;2023-03-19T16:43:53;15.60;76.80